Flight Track Log - Related Links

Times and Time Zones

All times are in EDT time to prevent confusion due to time zone crossing. See the JUS827 flight status page for this flight to view local times or setup timezone preferences in your user account.

Time Position Orientation Groundspeed Altitude Reporting Facility
EDT Latitude Longitude Course Direction KTS MPH feet Rate Location/Type
Sat 06:59:57 PM 42.1864 -83.6267 279° West 215 247 3,900  Level Cleveland Center
Sat 07:00:19 PM 42.1961 -83.6522 297° West 216 249 4,600 1,200 Climbing Cleveland Center
Sat 07:00:57 PM 42.2139 -83.6925 301° West 244 281 5,100 1,837 Climbing Cleveland Center
Sat 07:01:57 PM 42.2553 -83.7786 303° West 261 300 7,600 2,400 Climbing Cleveland Center
Sat 07:02:57 PM 42.2944 -83.8703 300° West 272 313 9,900 1,500 Climbing Cleveland Center
Sat 07:03:57 PM 42.3353 -83.9708 299° West 285 328 10,600 1,300 Climbing Cleveland Center
Sat 07:04:57 PM 42.3797 -84.0828 298° West 312 359 12,500 1,700 Climbing Cleveland Center
Sat 07:05:00 PM 42.4221 -84.3985 279° West  Level FlightAware Approximate
Sat 07:05:57 PM 42.4267 -84.1897 301° West 325 374 14,000  Level Cleveland Center
Sat 07:06:57 PM 42.4350 -84.3139 275° West 331 381 15,600 1,400 Climbing Cleveland Center
Sat 07:07:57 PM 42.4206 -84.4425 261° West 331 381 16,800 1,150 Climbing Cleveland Center
Sat 07:08:57 PM 42.4075 -84.5739 262° West 344 396 17,900 1,101 Climbing Cleveland Center
Sat 07:09:46 PM 42.4072 -84.6917 270° West 359 413 18,800 919 Climbing Chicago Center
Sat 07:10:48 PM 42.4094 -84.8281 271° West 364 419 19,600 878 Climbing Chicago Center
Sat 07:11:49 PM 42.4206 -84.9669 276° West 371 427 20,600 878 Climbing Chicago Center
Sat 07:12:51 PM 42.4372 -85.1061 279° West 376 433 21,400 927 Climbing Chicago Center
Sat 07:13:52 PM 42.4536 -85.2483 279° West 380 437 22,500 976 Climbing Chicago Center
Sat 07:14:54 PM 42.4575 -85.3931 272° West 384 442 23,400 878 Climbing Chicago Center
Sat 07:15:55 PM 42.4542 -85.5708 269° West 393 452 24,300 927 Climbing Chicago Center
Sat 07:16:57 PM 42.4553 -85.7186 271° West 391 450 25,300 878 Climbing Chicago Center
Sat 07:17:58 PM 42.4583 -85.8681 272° West 397 457 26,100 934 Climbing Chicago Center
Sat 07:18:59 PM 42.4703 -86.0172 276° West 396 456 27,200 976 Climbing Chicago Center
Sat 07:20:01 PM 42.4667 -86.1628 268° West 389 448 28,100 878 Climbing Chicago Center
Sat 07:21:02 PM 42.4425 -86.3017 257° West 380 437 29,000 829 Climbing Chicago Center
Sat 07:22:04 PM 42.4114 -86.4381 253° West 381 438 29,800 878 Climbing Chicago Center
Sat 07:23:05 PM 42.3986 -86.5783 263° West 377 434 30,800 787 Climbing Chicago Center
Sat 07:24:06 PM 42.3828 -86.7136 261° West 371 427 31,400 829 Climbing Chicago Center
Sat 07:25:08 PM 42.3544 -86.8722 256° West 365 420 32,500 829 Climbing Chicago Center
Sat 07:26:09 PM 42.3336 -87.0031 258° West 361 415 33,100 585 Climbing Chicago Center
Sat 07:27:11 PM 42.2689 -87.1017 228° Southwest 355 409 33,700 439 Climbing Chicago Center
Sat 07:28:12 PM 42.1975 -87.1928 223° Southwest 356 410 34,000 146 Climbing Chicago Center
Sat 07:29:14 PM 42.1281 -87.2906 226° Southwest 362 417 34,000  Level Chicago Center
Sat 07:30:15 PM 42.0689 -87.3997 234° Southwest 364 419 34,000  Level Chicago Center
Sat 07:31:16 PM 42.0111 -87.5089 235° Southwest 362 417 34,000  Level Chicago Center
Sat 07:32:18 PM 41.9428 -87.6433 236° Southwest 365 420 34,000  Level Chicago Center
Sat 07:33:19 PM 41.8822 -87.7492 232° Southwest 363 418 34,000  Level Chicago Center
Sat 07:34:21 PM 41.8208 -87.8544 232° Southwest 361 415 34,000  Level Chicago Center
Sat 07:35:22 PM 41.7614 -87.9603 233° Southwest 361 415 34,000  Level Chicago Center
Sat 07:36:23 PM 41.6956 -88.0611 229° Southwest 364 419 34,000  Level Chicago Center
Sat 07:37:25 PM 41.6369 -88.1678 234° Southwest 361 415 34,000  Level Chicago Center
Sat 07:38:26 PM 41.5692 -88.2953 235° Southwest 359 413 34,000 49 Level Chicago Center
Sat 07:39:27 PM 41.5092 -88.3994 232° Southwest 360 414 34,100  Climbing Chicago Center
Sat 07:40:29 PM 41.4700 -88.5206 247° West 360 414 34,000  Descending Chicago Center
Sat 07:41:30 PM 41.4436 -88.6492 255° West 361 415 34,100  Climbing Chicago Center
Sat 07:42:32 PM 41.3989 -88.7672 243° Southwest 359 413 34,000 -49 Descending Chicago Center
Sat 07:43:33 PM 41.3575 -88.8881 246° West 358 412 34,000  Level Chicago Center
Sat 07:44:35 PM 41.3161 -89.0375 250° West 361 415 34,000  Level Chicago Center
Sat 07:45:38 PM 41.2722 -89.1589 244° Southwest 363 418 34,000  Level Chicago Center
Sat 07:46:38 PM 41.2464 -89.2783 254° West 366 421 34,000  Level Chicago Center
Sat 07:47:39 PM 41.2133 -89.4042 251° West 365 420 34,000  Level Chicago Center
Sat 07:48:41 PM 41.1747 -89.5297 248° West 368 423 34,000  Level Chicago Center
Sat 07:49:42 PM 41.1306 -89.6803 249° West 368 423 34,000  Level Chicago Center
Sat 07:50:44 PM 41.0897 -89.8042 246° West 375 432 34,000  Level Chicago Center
Sat 07:51:45 PM 41.0358 -89.9169 238° Southwest 373 429 34,000  Level Chicago Center
Sat 07:52:46 PM 40.9947 -90.0514 248° West 373 429 34,000  Level Chicago Center
Sat 07:53:48 PM 40.9519 -90.1744 245° Southwest 369 425 34,000  Level Chicago Center
Sat 07:54:49 PM 40.9092 -90.2881 244° Southwest 375 432 34,000  Level Chicago Center
Sat 07:55:51 PM 40.8494 -90.4300 241° Southwest 374 430 34,000  Level Chicago Center
Sat 07:56:52 PM 40.8033 -90.5506 243° Southwest 371 427 34,000  Level Chicago Center
Sat 07:57:54 PM 40.7572 -90.6739 244° Southwest 378 435 34,000  Level Chicago Center
Sat 07:58:55 PM 40.7106 -90.7956 243° Southwest 374 430 34,000  Level Chicago Center
Sat 07:59:56 PM 40.6642 -90.9186 244° Southwest 375 432 34,000  Level Chicago Center
Sat 08:00:58 PM 40.6178 -91.0397 243° Southwest 373 429 34,000  Level Chicago Center
Sat 08:01:59 PM 40.5708 -91.1614 243° Southwest 374 430 34,000  Level Chicago Center
Sat 08:03:01 PM 40.5186 -91.3019 244° Southwest 376 433 34,000  Level Chicago Center
Sat 08:04:02 PM 40.4686 -91.4208 241° Southwest 376 433 34,000  Level Chicago Center
Sat 08:05:03 PM 40.4189 -91.5403 241° Southwest 376 433 34,000  Level Chicago Center
Sat 08:05:47 PM 40.3822 -91.6381 244° Southwest 376 433 34,000  Level Kansas City Center
Sat 08:06:48 PM 40.3381 -91.7600 245° Southwest 373 429 34,000  Level Kansas City Center
Sat 08:07:50 PM 40.3017 -91.8858 249° West 373 429 34,000  Level Kansas City Center
Sat 08:08:51 PM 40.2736 -92.0144 254° West 371 427 34,000  Level Kansas City Center
Sat 08:09:53 PM 40.2497 -92.1453 257° West 371 427 34,000  Level Kansas City Center
Sat 08:10:54 PM 40.2161 -92.2722 251° West 370 426 34,000  Level Kansas City Center
Sat 08:11:55 PM 40.1789 -92.4061 250° West 371 427 34,000  Level Kansas City Center
Sat 08:12:57 PM 40.1472 -92.5503 254° West 370 426 34,000  Level Kansas City Center
Sat 08:13:58 PM 40.0889 -92.6539 234° Southwest 373 429 34,000  Level Kansas City Center
Sat 08:15:00 PM 39.9869 -92.7217 207° Southwest 377 434 34,000  Level Kansas City Center
Sat 08:16:01 PM 39.9078 -92.8125 221° Southwest 378 435 34,000  Level Kansas City Center
Sat 08:17:02 PM 39.8239 -92.8972 218° Southwest 381 438 34,000  Level Kansas City Center
Sat 08:18:04 PM 39.7361 -92.9772 215° Southwest 385 443 34,000  Level Kansas City Center
Sat 08:19:05 PM 39.6467 -93.0575 215° Southwest 390 449 34,000  Level Kansas City Center
Sat 08:20:07 PM 39.5603 -93.1442 218° Southwest 394 453 34,000  Level Kansas City Center
Sat 08:21:08 PM 39.4725 -93.2289 217° Southwest 395 455 34,000  Level Kansas City Center
Sat 08:22:09 PM 39.3694 -93.3336 218° Southwest 396 456 34,000  Level Kansas City Center
Sat 08:23:11 PM 39.2828 -93.4228 219° Southwest 399 459 34,000  Level Kansas City Center
Sat 08:24:12 PM 39.1944 -93.5086 217° Southwest 403 464 34,000  Level Kansas City Center
Sat 08:25:13 PM 39.1092 -93.5911 217° Southwest 401 461 34,000  Level Kansas City Center
Sat 08:26:15 PM 39.0125 -93.6942 220° Southwest 403 464 34,000  Level Kansas City Center
Sat 08:27:16 PM 38.9319 -93.7856 221° Southwest 404 465 34,000  Level Kansas City Center
Sat 08:28:17 PM 38.8408 -93.8922 222° Southwest 396 456 34,000  Level Kansas City Center
Sat 08:29:19 PM 38.7608 -93.9803 221° Southwest 396 456 34,000  Level Kansas City Center
Sat 08:30:20 PM 38.6778 -94.0639 218° Southwest 396 456 34,000  Level Kansas City Center
Sat 08:31:21 PM 38.5814 -94.1614 218° Southwest 394 453 34,000  Level Kansas City Center
Sat 08:32:22 PM 38.5033 -94.2533 223° Southwest 396 456 34,000  Level Kansas City Center
Sat 08:33:24 PM 38.4203 -94.3403 219° Southwest 400 460 34,000  Level Kansas City Center
Sat 08:34:25 PM 38.3278 -94.4425 221° Southwest 394 453 34,000  Level Kansas City Center
Sat 08:35:26 PM 38.2428 -94.5228 217° Southwest 396 456 34,000  Level Kansas City Center
Sat 08:36:27 PM 38.1403 -94.5592 196° South 402 463 34,000  Level Kansas City Center
Sat 08:37:29 PM 38.0297 -94.6336 208° Southwest 400 460 34,000  Level Kansas City Center
Sat 08:38:30 PM 37.9339 -94.6975 208° Southwest 401 461 34,000  Level Kansas City Center
Sat 08:39:31 PM 37.8186 -94.7719 207° Southwest 412 474 34,000  Level Kansas City Center
Sat 08:40:32 PM 37.7175 -94.8231 202° Southwest 408 470 34,000  Level Kansas City Center
Sat 08:41:33 PM 37.6147 -94.8758 202° Southwest 405 466 34,000  Level Kansas City Center
Sat 08:42:34 PM 37.5139 -94.9406 207° Southwest 404 465 34,000  Level Kansas City Center
Sat 08:43:35 PM 37.4108 -95.0017 205° Southwest 406 467 34,000  Level Kansas City Center
Sat 08:44:37 PM 37.3039 -95.0544 201° Southwest 411 473 34,000  Level Kansas City Center
Sat 08:45:38 PM 37.1975 -95.1028 200° South 407 468 34,000  Level Kansas City Center
Sat 08:46:39 PM 37.0947 -95.1647 206° Southwest 407 468 34,000  Level Kansas City Center
Sat 08:47:40 PM 36.9794 -95.2550 212° Southwest 406 467 34,000  Level Kansas City Center
Sat 08:48:41 PM 36.8867 -95.3317 213° Southwest 403 464 34,000  Level Kansas City Center
Sat 08:49:42 PM 36.7908 -95.4072 212° Southwest 406 467 34,000  Level Kansas City Center
Sat 08:50:43 PM 36.6908 -95.4722 208° Southwest 407 468 34,000  Level Kansas City Center
Sat 08:51:45 PM 36.5881 -95.5306 205° Southwest 409 471 34,000  Level Kansas City Center
Sat 08:52:46 PM 36.4853 -95.5869 204° Southwest 406 467 34,000  Level Kansas City Center
Sat 08:53:47 PM 36.3878 -95.6547 209° Southwest 403 464 34,000  Level Kansas City Center
Sat 08:54:48 PM 36.2986 -95.7325 215° Southwest 395 455 34,000  Level Kansas City Center
Sat 08:55:49 PM 36.2131 -95.8047 214° Southwest 390 449 34,000  Level Kansas City Center
Sat 08:56:50 PM 36.1103 -95.9000 217° Southwest 387 445 34,000  Level Kansas City Center
Sat 08:57:51 PM 36.0111 -95.9503 202° Southwest 389 448 34,000 -98 Level Kansas City Center
Sat 08:58:52 PM 35.9133 -96.0042 204° Southwest 387 445 33,800  Descending Kansas City Center
Sat 08:59:53 PM 35.8250 -96.0747 213° Southwest 382 440 34,000 98 Climbing Kansas City Center
Sat 09:00:54 PM 35.7386 -96.1564 218° Southwest 375 432 34,000  Level Kansas City Center
Sat 09:01:55 PM 35.6631 -96.2381 221° Southwest 367 422 34,000  Level Kansas City Center
Sat 09:02:56 PM 35.5900 -96.3244 224° Southwest 364 419 34,000  Level Kansas City Center
Sat 09:03:57 PM 35.5164 -96.4075 223° Southwest 360 414 34,000  Level Kansas City Center
Sat 09:04:58 PM 35.4361 -96.4833 218° Southwest 362 417 34,000  Level Kansas City Center
Sat 09:06:06 PM 35.3367 -96.5764 217° Southwest 366 421 34,000  Level Fort Worth Center
Sat 09:07:06 PM 35.2539 -96.6483 215° Southwest 366 421 34,000  Level Fort Worth Center
Sat 09:08:06 PM 35.1708 -96.7178 214° Southwest 366 421 34,000 50 Level Fort Worth Center
Sat 09:09:06 PM 35.0878 -96.7869 214° Southwest 366 421 34,100 -150 Climbing Fort Worth Center
Sat 09:10:06 PM 35.0108 -96.8661 220° Southwest 366 421 33,700 -950 Descending Fort Worth Center
Sat 09:11:06 PM 34.9361 -96.9578 225° Southwest 373 429 32,200 -950 Descending Fort Worth Center
Sat 09:12:06 PM 34.8633 -97.0542 227° Southwest 378 435 31,800 -850 Descending Fort Worth Center
Sat 09:13:06 PM 34.7947 -97.1506 229° Southwest 388 447 30,500 -1,400 Descending Fort Worth Center
Sat 09:14:06 PM 34.7283 -97.2442 229° Southwest 394 453 29,000 -1,550 Descending Fort Worth Center
Sat 09:15:06 PM 34.6511 -97.3478 228° Southwest 409 471 27,400 -1,750 Descending Fort Worth Center
Sat 09:16:06 PM 34.5614 -97.4464 222° Southwest 420 483 25,500 -1,450 Descending Fort Worth Center
Sat 09:17:06 PM 34.4528 -97.4967 201° Southwest 428 493 24,500 -600 Descending Fort Worth Center
Sat 09:18:06 PM 34.3444 -97.5042 183° South 405 466 24,300 -300 Descending Fort Worth Center
Sat 09:19:06 PM 34.2442 -97.5217 188° South 382 440 23,900 -1,150 Descending Fort Worth Center
Sat 09:20:06 PM 34.1461 -97.5539 195° South 370 426 22,000 -2,100 Descending Fort Worth Center
Sat 09:21:06 PM 34.0481 -97.5939 199° South 370 426 19,700 -2,150 Descending Fort Worth Center
Sat 09:22:06 PM 33.9353 -97.6489 202° Southwest 385 443 17,700 -1,950 Descending Fort Worth Center
Sat 09:23:06 PM 33.8433 -97.7011 205° Southwest 391 450 15,800 -2,150 Descending Fort Worth Center
Sat 09:24:06 PM 33.7514 -97.7483 203° Southwest 373 429 13,400 -2,400 Descending Fort Worth Center
Sat 09:25:06 PM 33.6594 -97.7778 195° South 361 415 11,000 -1,800 Descending Fort Worth Center
Sat 09:26:06 PM 33.5739 -97.8000 192° South 340 391 9,800 -1,200 Descending Fort Worth Center
Sat 09:27:06 PM 33.4944 -97.7994 180° South 305 351 8,600 -750 Descending Fort Worth Center
Sat 09:28:06 PM 33.4278 -97.7917 174° South 258 297 8,300 -750 Descending Fort Worth Center
Sat 09:29:06 PM 33.3608 -97.7667 163° South 244 281 7,100 -1,500 Descending Fort Worth Center
Sat 09:30:06 PM 33.2797 -97.7464 168° South 268 308 5,300 -1,300 Descending Fort Worth Center
Sat 09:31:06 PM 33.2108 -97.7114 157° South 280 322 4,500 -650 Descending Fort Worth Center
Sat 09:32:06 PM 33.1567 -97.6664 145° Southeast 251 289 4,000 -200 Descending Fort Worth Center
Sat 09:33:06 PM 33.1067 -97.6242 145° Southeast 229 264 4,100 -300 Climbing Fort Worth Center
Sat 09:34:06 PM 33.0544 -97.5794 144° Southeast 223 257 3,400 -500 Descending Fort Worth Center
Sat 09:35:06 PM 33.0108 -97.5422 144° Southeast 218 251 3,100 -200 Descending Fort Worth Center
Sat 09:36:06 PM 32.9606 -97.4975 143° Southeast 213 245 3,000  Descending Fort Worth Center
Sat 09:37:06 PM 32.9211 -97.4606 142° Southeast 213 245 3,100  Climbing Fort Worth Center
Sat 09:38:06 PM 32.8647 -97.4308 156° South 208 239 3,000 -200 Descending Fort Worth Center
Sat 09:39:06 PM 32.8208 -97.4208 169° South 186 214 2,700 -400 Descending Fort Worth Center
Sat 09:40:06 PM 32.7750 -97.4258 185° South 174 200 2,200 -450 Descending Fort Worth Center
Sat 09:41:06 PM 32.7667 -97.3836 103° East 119 137 1,800 -400 Descending Fort Worth Center
Sat 09:43:00 PM 32.8167 -97.3500 140° Southeast  Level FlightAware Approximate
Sat 09:50:00 PM 32.8198 -97.3624 140° Southeast  Level Estimated

Login

Don't have an account? Register now (free) for customized features, flight alerts, and more!